createdAt,value
2019-05-14T00:03:37.228Z,10.09
2019-05-14T00:07:57.708Z,9.85
2019-05-14T00:12:18.548Z,9.93
2019-05-14T00:16:38.937Z,9.81
2019-05-14T00:21:01.998Z,9.62
2019-05-14T00:25:22.424Z,9.69
2019-05-14T00:29:42.953Z,9.32
2019-05-14T00:34:03.164Z,9.35
2019-05-14T00:38:23.783Z,9.42
2019-05-14T00:42:44.413Z,9.28
2019-05-14T00:47:05.007Z,9.27
2019-05-14T00:51:26.128Z,9.22
2019-05-14T00:55:46.920Z,9.26
2019-05-14T01:00:07.287Z,9.14
2019-05-14T01:04:28.674Z,8.98
2019-05-14T01:08:49.048Z,8.97
2019-05-14T01:13:11.203Z,8.90
2019-05-14T01:17:31.637Z,8.66
2019-05-14T01:21:52.653Z,8.70
2019-05-14T01:26:13.438Z,8.75
2019-05-14T01:30:33.687Z,8.61
2019-05-14T01:34:54.099Z,8.45
2019-05-14T01:39:15.456Z,8.42
2019-05-14T01:43:35.747Z,8.23
2019-05-14T01:47:56.479Z,8.30
2019-05-14T01:52:17.446Z,8.30
2019-05-14T01:56:38.141Z,8.08
2019-05-14T02:00:58.675Z,8.12
2019-05-14T02:05:21.582Z,7.94
2019-05-14T02:09:42.174Z,7.98
2019-05-14T02:14:02.878Z,7.92
2019-05-14T02:18:23.622Z,7.98
2019-05-14T02:22:44.330Z,8.03
2019-05-14T02:27:04.950Z,7.64
2019-05-14T02:31:29.051Z,7.69
2019-05-14T02:35:49.400Z,7.67
2019-05-14T02:40:12.966Z,7.56
2019-05-14T02:44:33.278Z,7.62
2019-05-14T02:48:54.097Z,7.44
2019-05-14T02:53:15.162Z,7.42
2019-05-14T02:57:35.386Z,7.52
2019-05-14T03:01:58.872Z,7.31
2019-05-14T03:06:20.049Z,7.28
2019-05-14T03:10:41.040Z,7.23
2019-05-14T03:15:01.312Z,7.25
2019-05-14T03:19:21.644Z,7.31
2019-05-14T03:23:42.394Z,7.26
2019-05-14T03:28:02.769Z,7.13
2019-05-14T03:32:23.396Z,7.00
2019-05-14T03:36:44.236Z,7.06
2019-05-14T03:41:05.052Z,7.29
2019-05-14T03:45:25.636Z,6.91
2019-05-14T03:49:49.540Z,6.96
2019-05-14T03:54:12.681Z,6.95
2019-05-14T03:58:32.834Z,6.79
2019-05-14T04:02:53.645Z,6.81
2019-05-14T04:07:14.846Z,6.76
2019-05-14T04:11:39.836Z,6.74
2019-05-14T04:16:04.810Z,6.72
2019-05-14T04:20:25.443Z,6.68
2019-05-14T04:24:49.576Z,6.85
2019-05-14T04:29:12.223Z,6.77
2019-05-14T04:33:34.113Z,6.73
2019-05-14T04:37:54.294Z,7.02
2019-05-14T04:42:14.444Z,6.86
2019-05-14T04:46:35.384Z,6.97
2019-05-14T04:50:56.050Z,6.85
2019-05-14T04:55:16.413Z,7.13
2019-05-14T04:59:39.763Z,7.02
2019-05-14T05:03:59.947Z,6.98
2019-05-14T05:08:20.779Z,7.13
2019-05-14T05:12:40.996Z,7.17
2019-05-14T05:17:02.970Z,7.41
2019-05-14T05:21:23.525Z,7.42
2019-05-14T05:25:43.580Z,7.40
2019-05-14T05:30:04.522Z,7.47
2019-05-14T05:34:25.169Z,7.62
2019-05-14T05:38:48.734Z,7.77
2019-05-14T05:43:09.016Z,7.76
2019-05-14T05:47:29.683Z,7.75
2019-05-14T05:51:50.222Z,7.94
2019-05-14T05:56:10.525Z,8.12
2019-05-14T06:00:33.670Z,8.29
2019-05-14T06:04:54.627Z,8.50
2019-05-14T06:09:15.072Z,8.62
2019-05-14T06:13:35.394Z,8.69
2019-05-14T06:18:11.632Z,8.71
2019-05-14T06:22:19.674Z,8.96
2019-05-14T06:26:40.198Z,8.89
2019-05-14T06:31:01.292Z,9.06
2019-05-14T06:35:21.608Z,9.40
2019-05-14T06:39:41.861Z,9.71
2019-05-14T06:44:03.060Z,9.74
2019-05-14T06:48:30.297Z,9.88
2019-05-14T06:52:49.015Z,9.84
2019-05-14T06:57:09.082Z,10.12
2019-05-14T07:01:29.728Z,10.54
2019-05-14T07:05:49.824Z,10.54
2019-05-14T07:10:10.324Z,10.51
2019-05-14T07:14:30.863Z,10.53
2019-05-14T07:18:54.142Z,10.30
2019-05-14T07:23:13.613Z,10.80
2019-05-14T07:27:34.342Z,11.04
2019-05-14T07:31:54.974Z,11.66
2019-05-14T07:36:18.667Z,11.85
2019-05-14T07:40:39.282Z,11.85
2019-05-14T07:45:00.292Z,11.67
2019-05-14T07:49:20.896Z,12.22
2019-05-14T07:53:42.461Z,12.22
2019-05-14T07:58:03.663Z,12.51
2019-05-14T08:02:24.850Z,12.70
2019-05-14T08:06:48.743Z,13.03
2019-05-14T08:11:09.077Z,13.49
2019-05-14T08:15:30.170Z,13.66
2019-05-14T08:19:51.448Z,13.75
2019-05-14T08:24:15.358Z,13.91
2019-05-14T08:28:34.883Z,13.96
2019-05-14T08:32:55.531Z,14.14
2019-05-14T08:37:15.977Z,14.22
2019-05-14T08:41:41.516Z,14.28
2019-05-14T08:46:02.588Z,14.47
2019-05-14T08:50:23.493Z,14.75
2019-05-14T08:54:44.727Z,14.83
2019-05-14T08:59:08.705Z,14.57
2019-05-14T09:03:30.367Z,14.37
2019-05-14T09:07:50.985Z,14.30
2019-05-14T09:12:12.723Z,14.30
2019-05-14T09:16:45.500Z,14.32
2019-05-14T09:20:58.238Z,14.81
2019-05-14T09:25:19.383Z,14.71
2019-05-14T09:29:40.590Z,15.31
2019-05-14T09:34:01.177Z,15.45
2019-05-14T09:38:21.847Z,15.70
2019-05-14T09:42:43.117Z,16.47
2019-05-14T09:47:03.761Z,16.78
2019-05-14T09:51:25.164Z,16.88
2019-05-14T09:55:45.503Z,17.06
2019-05-14T10:00:09.051Z,16.38
2019-05-14T10:04:30.263Z,15.48
2019-05-14T10:08:51.109Z,15.74
2019-05-14T10:13:12.145Z,15.58
2019-05-14T10:17:33.273Z,15.83
2019-05-14T10:21:53.842Z,15.55
2019-05-14T10:26:14.546Z,15.95
2019-05-14T10:30:36.127Z,16.43
2019-05-14T10:34:58.859Z,16.49
2019-05-14T10:39:19.462Z,16.49
2019-05-14T10:43:39.548Z,16.33
2019-05-14T10:48:00.739Z,16.42
2019-05-14T10:52:21.275Z,16.35
2019-05-14T10:56:41.674Z,16.22
2019-05-14T11:01:02.347Z,16.87
2019-05-14T11:05:22.795Z,17.02
2019-05-14T11:09:43.266Z,17.64
2019-05-14T11:14:04.750Z,17.30
2019-05-14T11:18:28.812Z,17.56
2019-05-14T11:22:49.440Z,17.77
2019-05-14T11:27:10.240Z,16.79
2019-05-14T11:31:34.241Z,16.97
2019-05-14T11:35:53.005Z,16.70
2019-05-14T11:40:14.622Z,16.71
2019-05-14T11:44:34.951Z,16.79
2019-05-14T11:48:55.401Z,17.18
2019-05-14T11:53:19.144Z,16.58
2019-05-14T11:57:37.953Z,17.25
2019-05-14T12:01:59.447Z,17.69
2019-05-14T12:06:20.028Z,17.39
2019-05-14T12:10:40.756Z,17.21
2019-05-14T12:15:01.548Z,16.88
2019-05-14T12:19:22.001Z,16.82
2019-05-14T12:23:42.416Z,16.78
2019-05-14T12:28:02.950Z,17.03
2019-05-14T12:32:24.316Z,17.09
2019-05-14T12:36:44.816Z,17.05
2019-05-14T12:41:08.934Z,17.47
2019-05-14T12:45:29.922Z,17.36
2019-05-14T12:49:51.306Z,17.79
2019-05-14T12:54:12.263Z,18.01
2019-05-14T12:58:32.883Z,18.54
2019-05-14T13:02:53.125Z,17.95
2019-05-14T13:07:13.282Z,17.95
2019-05-14T13:11:33.805Z,17.43
2019-05-14T13:15:54.975Z,17.53
2019-05-14T13:20:15.494Z,18.09
2019-05-14T13:24:39.176Z,18.32
2019-05-14T13:28:59.032Z,18.36
2019-05-14T13:33:20.101Z,17.51
2019-05-14T13:37:40.886Z,17.12
2019-05-14T13:42:01.450Z,17.32
2019-05-14T13:46:22.079Z,17.92
2019-05-14T13:50:43.069Z,18.08
2019-05-14T13:55:04.189Z,18.66
2019-05-14T13:59:24.334Z,19.03
2019-05-14T14:03:52.512Z,18.12
2019-05-14T14:08:08.822Z,17.89
2019-05-14T14:12:32.468Z,18.71
2019-05-14T14:16:52.982Z,18.97
2019-05-14T14:21:13.989Z,18.61
2019-05-14T14:25:34.523Z,17.85
2019-05-14T14:29:55.275Z,17.96
2019-05-14T14:34:18.023Z,17.73
2019-05-14T14:38:40.191Z,17.75
2019-05-14T14:43:01.679Z,17.80
2019-05-14T14:47:22.126Z,18.00
2019-05-14T14:51:45.135Z,17.82
2019-05-14T14:56:09.051Z,18.24
2019-05-14T15:00:29.423Z,18.40
2019-05-14T15:04:50.211Z,17.69
2019-05-14T15:09:10.813Z,17.84
2019-05-14T15:13:31.170Z,18.27
2019-05-14T15:17:51.433Z,18.41
2019-05-14T15:22:12.960Z,17.97
2019-05-14T15:26:33.317Z,17.49
2019-05-14T15:30:54.489Z,18.22
2019-05-14T15:35:15.571Z,18.27
2019-05-14T15:39:38.912Z,18.64
2019-05-14T15:43:58.901Z,18.05
2019-05-14T15:48:20.093Z,17.23
2019-05-14T15:52:40.948Z,17.75
2019-05-14T15:57:01.475Z,17.82
2019-05-14T16:01:22.581Z,17.60
2019-05-14T16:05:43.705Z,17.73
2019-05-14T16:10:05.173Z,17.72
2019-05-14T16:14:25.674Z,17.60
2019-05-14T16:18:47.992Z,17.47
2019-05-14T16:23:10.856Z,17.36
2019-05-14T16:27:31.193Z,17.59
2019-05-14T16:31:51.882Z,17.34
2019-05-14T16:36:13.002Z,17.60
2019-05-14T16:40:33.359Z,17.99
2019-05-14T16:44:54.050Z,18.21
2019-05-14T16:49:14.491Z,19.40
2019-05-14T16:53:34.981Z,19.38
2019-05-14T16:57:55.309Z,19.69
2019-05-14T17:02:19.123Z,19.30
2019-05-14T17:06:39.826Z,18.88
2019-05-14T17:11:00.545Z,18.93
2019-05-14T17:15:20.864Z,18.53
2019-05-14T17:19:42.130Z,18.05
2019-05-14T17:24:02.492Z,18.29
2019-05-14T17:28:23.542Z,18.11
2019-05-14T17:32:44.599Z,17.59
2019-05-14T17:37:08.716Z,17.38
2019-05-14T17:41:29.200Z,17.21
2019-05-14T17:45:50.044Z,16.89
2019-05-14T17:50:10.792Z,16.51
2019-05-14T17:54:31.741Z,16.41
2019-05-14T17:58:54.124Z,16.31
2019-05-14T18:03:14.711Z,16.30
2019-05-14T18:07:35.745Z,16.21
2019-05-14T18:11:58.452Z,16.22
2019-05-14T18:16:19.405Z,15.80
2019-05-14T18:20:39.751Z,15.53
2019-05-14T18:25:01.042Z,15.53
2019-05-14T18:29:22.431Z,15.45
2019-05-14T18:33:42.589Z,15.41
2019-05-14T18:38:03.431Z,15.29
2019-05-14T18:42:24.203Z,15.21
2019-05-14T18:46:45.018Z,15.22
2019-05-14T18:51:08.649Z,15.21
2019-05-14T18:55:29.462Z,14.97
2019-05-14T18:59:50.839Z,14.84
2019-05-14T19:04:11.258Z,14.85
2019-05-14T19:08:32.239Z,14.70
2019-05-14T19:12:52.521Z,14.67
2019-05-14T19:17:14.247Z,14.58
2019-05-14T19:21:34.932Z,14.49
2019-05-14T19:25:55.161Z,14.23
2019-05-14T19:30:16.220Z,14.27
2019-05-14T19:34:38.190Z,14.17
2019-05-14T19:38:59.485Z,14.05
2019-05-14T19:43:20.605Z,14.01
2019-05-14T19:47:41.121Z,13.82
2019-05-14T19:52:03.073Z,13.69
2019-05-14T19:56:23.551Z,13.74
2019-05-14T20:00:44.667Z,13.31
2019-05-14T20:05:09.506Z,13.69
2019-05-14T20:09:34.518Z,13.43
2019-05-14T20:13:55.832Z,13.43
2019-05-14T20:18:16.789Z,13.33
2019-05-14T20:22:39.161Z,13.00
2019-05-14T20:27:08.313Z,12.99
2019-05-14T20:31:25.726Z,12.79
2019-05-14T20:35:53.015Z,12.93
2019-05-14T20:40:16.257Z,12.85
2019-05-14T20:44:38.666Z,12.78
2019-05-14T20:49:00.258Z,12.56
2019-05-14T20:53:21.025Z,12.45
2019-05-14T20:57:41.936Z,12.45
2019-05-14T21:02:02.923Z,12.28
2019-05-14T21:06:25.254Z,12.22
2019-05-14T21:10:46.525Z,12.19
2019-05-14T21:15:08.956Z,11.96
2019-05-14T21:19:31.728Z,11.84
2019-05-14T21:23:58.635Z,11.84
2019-05-14T21:28:22.477Z,11.85
2019-05-14T21:32:43.076Z,11.69
2019-05-14T21:37:03.778Z,11.69
2019-05-14T21:41:25.295Z,11.61
2019-05-14T21:45:46.033Z,11.42
2019-05-14T21:50:08.941Z,11.30
2019-05-14T21:54:31.071Z,11.14
2019-05-14T21:58:52.253Z,11.14
2019-05-14T22:03:13.026Z,11.04
2019-05-14T22:07:33.816Z,11.07
2019-05-14T22:11:54.558Z,10.88
2019-05-14T22:16:15.512Z,10.89
2019-05-14T22:20:38.599Z,10.89
2019-05-14T22:25:00.169Z,10.62
2019-05-14T22:29:20.528Z,10.58
2019-05-14T22:33:42.325Z,10.54
2019-05-14T22:38:02.891Z,10.52
2019-05-14T22:42:23.896Z,10.36
2019-05-14T22:46:44.542Z,10.01
2019-05-14T22:51:05.126Z,9.84
2019-05-14T22:55:25.740Z,9.92
2019-05-14T22:59:48.650Z,9.39
2019-05-14T23:04:09.199Z,9.39
2019-05-14T23:08:29.377Z,9.47
2019-05-14T23:12:49.936Z,9.33
2019-05-14T23:17:10.281Z,9.31
2019-05-14T23:21:31.128Z,9.31
2019-05-14T23:25:51.784Z,9.27
2019-05-14T23:30:12.514Z,9.25
2019-05-14T23:34:33.093Z,9.37
2019-05-14T23:38:54.301Z,9.22
2019-05-14T23:43:15.336Z,8.97
2019-05-14T23:47:38.065Z,8.90
2019-05-14T23:51:57.926Z,9.04
2019-05-14T23:56:19.421Z,8.89
